sensor_id;sensor_type;location;lat;lon;timestamp;pressure;altitude;pressure_sealevel;temperature;humidity
36014;BME280;22275;43.208;27.620;2022-10-19T00:00:50;101926.41;;;13.40;100.00
36014;BME280;22275;43.208;27.620;2022-10-19T00:03:17;101927.34;;;13.56;100.00
36014;BME280;22275;43.208;27.620;2022-10-19T00:05:46;101927.34;;;13.56;100.00
36014;BME280;22275;43.208;27.620;2022-10-19T00:08:13;101919.94;;;13.45;100.00
36014;BME280;22275;43.208;27.620;2022-10-19T00:10:40;101917.84;;;13.35;100.00
36014;BME280;22275;43.208;27.620;2022-10-19T00:13:07;101914.25;;;14.01;100.00
36014;BME280;22275;43.208;27.620;2022-10-19T00:15:38;101905.13;;;13.58;100.00
36014;BME280;22275;43.208;27.620;2022-10-19T00:18:06;101903.22;;;13.45;100.00
36014;BME280;22275;43.208;27.620;2022-10-19T00:20:35;101898.34;;;13.70;100.00
36014;BME280;22275;43.208;27.620;2022-10-19T00:23:04;101896.38;;;13.73;100.00
36014;BME280;22275;43.208;27.620;2022-10-19T00:25:31;101893.03;;;13.70;100.00
36014;BME280;22275;43.208;27.620;2022-10-19T00:27:59;101890.41;;;13.20;100.00
36014;BME280;22275;43.208;27.620;2022-10-19T00:30:26;101897.06;;;12.23;100.00
36014;BME280;22275;43.208;27.620;2022-10-19T00:32:53;101895.50;;;12.00;100.00
36014;BME280;22275;43.208;27.620;2022-10-19T00:35:21;101892.44;;;12.45;100.00
36014;BME280;22275;43.208;27.620;2022-10-19T00:37:48;101885.94;;;12.69;100.00
36014;BME280;22275;43.208;27.620;2022-10-19T00:40:18;101876.78;;;12.93;100.00
36014;BME280;22275;43.208;27.620;2022-10-19T00:42:45;101875.28;;;12.53;100.00
36014;BME280;22275;43.208;27.620;2022-10-19T00:45:15;101875.63;;;12.29;100.00
36014;BME280;22275;43.208;27.620;2022-10-19T00:47:43;101873.91;;;12.28;100.00
36014;BME280;22275;43.208;27.620;2022-10-19T00:50:13;101873.84;;;12.10;100.00
36014;BME280;22275;43.208;27.620;2022-10-19T00:52:42;101874.94;;;11.88;100.00
36014;BME280;22275;43.208;27.620;2022-10-19T00:55:10;101875.00;;;11.86;100.00
36014;BME280;22275;43.208;27.620;2022-10-19T00:57:39;101866.94;;;11.71;100.00
36014;BME280;22275;43.208;27.620;2022-10-19T01:00:08;101869.50;;;11.72;100.00
36014;BME280;22275;43.208;27.620;2022-10-19T01:02:35;101871.59;;;11.64;100.00
36014;BME280;22275;43.208;27.620;2022-10-19T01:05:03;101862.41;;;11.54;100.00
36014;BME280;22275;43.208;27.620;2022-10-19T01:07:31;101865.03;;;11.54;100.00
36014;BME280;22275;43.208;27.620;2022-10-19T01:09:59;101858.88;;;11.35;100.00
36014;BME280;22275;43.208;27.620;2022-10-19T01:12:49;101849.50;;;11.48;100.00
36014;BME280;22275;43.208;27.620;2022-10-19T01:15:27;101861.63;;;11.52;100.00
36014;BME280;22275;43.208;27.620;2022-10-19T01:18:04;101856.84;;;11.60;100.00
36014;BME280;22275;43.208;27.620;2022-10-19T01:21:07;101858.53;;;11.81;100.00
36014;BME280;22275;43.208;27.620;2022-10-19T01:24:06;101846.84;;;11.67;100.00
36014;BME280;22275;43.208;27.620;2022-10-19T01:30:05;101846.56;;;11.54;100.00
36014;BME280;22275;43.208;27.620;2022-10-19T01:32:43;101848.63;;;11.29;100.00
36014;BME280;22275;43.208;27.620;2022-10-19T01:35:18;101837.03;;;11.51;100.00
36014;BME280;22275;43.208;27.620;2022-10-19T01:37:54;101820.78;;;11.22;100.00
36014;BME280;22275;43.208;27.620;2022-10-19T01:40:27;101829.19;;;11.69;100.00
36014;BME280;22275;43.208;27.620;2022-10-19T01:42:59;101822.34;;;12.02;100.00
36014;BME280;22275;43.208;27.620;2022-10-19T01:45:34;101817.66;;;12.26;100.00
36014;BME280;22275;43.208;27.620;2022-10-19T01:48:09;101811.84;;;12.36;100.00
36014;BME280;22275;43.208;27.620;2022-10-19T01:50:41;101808.34;;;12.36;100.00
36014;BME280;22275;43.208;27.620;2022-10-19T01:53:11;101805.97;;;12.65;100.00
36014;BME280;22275;43.208;27.620;2022-10-19T01:55:41;101814.69;;;12.15;100.00
36014;BME280;22275;43.208;27.620;2022-10-19T01:58:12;101805.81;;;11.80;100.00
36014;BME280;22275;43.208;27.620;2022-10-19T02:00:43;101799.81;;;11.19;100.00
36014;BME280;22275;43.208;27.620;2022-10-19T02:03:12;101816.88;;;10.91;100.00
36014;BME280;22275;43.208;27.620;2022-10-19T02:05:40;101809.34;;;10.82;100.00
36014;BME280;22275;43.208;27.620;2022-10-19T02:08:11;101814.03;;;10.96;100.00
36014;BME280;22275;43.208;27.620;2022-10-19T02:10:41;101795.38;;;11.01;100.00
36014;BME280;22275;43.208;27.620;2022-10-19T02:13:11;101802.81;;;11.30;100.00
36014;BME280;22275;43.208;27.620;2022-10-19T02:15:43;101804.56;;;11.31;100.00
36014;BME280;22275;43.208;27.620;2022-10-19T02:18:13;101807.00;;;11.54;100.00
36014;BME280;22275;43.208;27.620;2022-10-19T02:20:41;101806.84;;;11.57;100.00
36014;BME280;22275;43.208;27.620;2022-10-19T02:23:08;101808.84;;;11.52;100.00
36014;BME280;22275;43.208;27.620;2022-10-19T02:25:36;101802.34;;;11.59;100.00
36014;BME280;22275;43.208;27.620;2022-10-19T02:28:04;101813.81;;;11.58;100.00
36014;BME280;22275;43.208;27.620;2022-10-19T02:30:32;101804.72;;;11.65;100.00
36014;BME280;22275;43.208;27.620;2022-10-19T02:33:01;101804.41;;;11.52;100.00
36014;BME280;22275;43.208;27.620;2022-10-19T02:35:28;101799.41;;;11.28;100.00
36014;BME280;22275;43.208;27.620;2022-10-19T02:37:59;101803.94;;;11.06;100.00
36014;BME280;22275;43.208;27.620;2022-10-19T02:40:29;101805.78;;;11.24;100.00
36014;BME280;22275;43.208;27.620;2022-10-19T02:43:01;101802.97;;;11.27;100.00
36014;BME280;22275;43.208;27.620;2022-10-19T02:45:31;101797.56;;;11.30;100.00
36014;BME280;22275;43.208;27.620;2022-10-19T02:48:05;101793.63;;;11.38;100.00
36014;BME280;22275;43.208;27.620;2022-10-19T02:50:34;101792.00;;;11.36;100.00
36014;BME280;22275;43.208;27.620;2022-10-19T02:53:02;101794.81;;;11.51;100.00
36014;BME280;22275;43.208;27.620;2022-10-19T02:55:29;101791.31;;;11.51;100.00
36014;BME280;22275;43.208;27.620;2022-10-19T02:57:57;101791.44;;;11.48;100.00
36014;BME280;22275;43.208;27.620;2022-10-19T03:00:24;101789.16;;;11.59;100.00
36014;BME280;22275;43.208;27.620;2022-10-19T03:02:51;101794.16;;;11.65;100.00
36014;BME280;22275;43.208;27.620;2022-10-19T03:05:20;101786.63;;;11.76;100.00
36014;BME280;22275;43.208;27.620;2022-10-19T03:07:47;101785.59;;;11.97;100.00
36014;BME280;22275;43.208;27.620;2022-10-19T03:10:15;101779.66;;;11.92;100.00
36014;BME280;22275;43.208;27.620;2022-10-19T03:12:42;101777.69;;;11.97;100.00
36014;BME280;22275;43.208;27.620;2022-10-19T03:15:12;101779.03;;;11.87;100.00
36014;BME280;22275;43.208;27.620;2022-10-19T03:17:40;101774.34;;;11.75;100.00
36014;BME280;22275;43.208;27.620;2022-10-19T03:20:08;101772.91;;;11.68;100.00
36014;BME280;22275;43.208;27.620;2022-10-19T03:22:37;101782.19;;;11.77;100.00
36014;BME280;22275;43.208;27.620;2022-10-19T03:25:05;101770.75;;;11.95;100.00
36014;BME280;22275;43.208;27.620;2022-10-19T03:27:33;101770.97;;;11.90;100.00
36014;BME280;22275;43.208;27.620;2022-10-19T03:30:00;101768.47;;;11.87;100.00
36014;BME280;22275;43.208;27.620;2022-10-19T03:32:27;101769.00;;;11.77;100.00
36014;BME280;22275;43.208;27.620;2022-10-19T03:34:54;101762.63;;;11.81;100.00
36014;BME280;22275;43.208;27.620;2022-10-19T03:37:22;101752.94;;;11.81;100.00
36014;BME280;22275;43.208;27.620;2022-10-19T03:39:50;101765.13;;;11.65;100.00
36014;BME280;22275;43.208;27.620;2022-10-19T03:42:17;101758.34;;;11.60;100.00
36014;BME280;22275;43.208;27.620;2022-10-19T03:44:45;101754.63;;;11.64;100.00
36014;BME280;22275;43.208;27.620;2022-10-19T03:47:12;101758.28;;;11.61;100.00
36014;BME280;22275;43.208;27.620;2022-10-19T03:49:39;101753.78;;;11.44;100.00
36014;BME280;22275;43.208;27.620;2022-10-19T03:52:08;101751.94;;;11.65;100.00
36014;BME280;22275;43.208;27.620;2022-10-19T03:54:35;101756.50;;;11.62;100.00
36014;BME280;22275;43.208;27.620;2022-10-19T03:57:04;101750.63;;;11.55;100.00
36014;BME280;22275;43.208;27.620;2022-10-19T03:59:31;101747.03;;;11.58;100.00
36014;BME280;22275;43.208;27.620;2022-10-19T04:01:58;101743.94;;;11.67;100.00
36014;BME280;22275;43.208;27.620;2022-10-19T04:04:25;101743.97;;;11.48;100.00
36014;BME280;22275;43.208;27.620;2022-10-19T04:06:53;101741.41;;;11.46;100.00
36014;BME280;22275;43.208;27.620;2022-10-19T04:09:21;101741.75;;;11.58;100.00
36014;BME280;22275;43.208;27.620;2022-10-19T04:11:49;101735.84;;;11.71;100.00
36014;BME280;22275;43.208;27.620;2022-10-19T04:14:19;101737.69;;;11.50;100.00
36014;BME280;22275;43.208;27.620;2022-10-19T04:16:47;101739.97;;;11.39;100.00
36014;BME280;22275;43.208;27.620;2022-10-19T04:19:14;101737.88;;;11.27;100.00
36014;BME280;22275;43.208;27.620;2022-10-19T04:21:42;101743.81;;;11.51;100.00
36014;BME280;22275;43.208;27.620;2022-10-19T04:24:11;101744.19;;;11.43;100.00
36014;BME280;22275;43.208;27.620;2022-10-19T04:26:40;101747.16;;;11.54;100.00
36014;BME280;22275;43.208;27.620;2022-10-19T04:29:07;101738.78;;;11.64;100.00
36014;BME280;22275;43.208;27.620;2022-10-19T04:31:37;101745.34;;;11.55;100.00
36014;BME280;22275;43.208;27.620;2022-10-19T04:34:05;101732.97;;;11.57;100.00
36014;BME280;22275;43.208;27.620;2022-10-19T04:36:33;101731.25;;;11.56;100.00
36014;BME280;22275;43.208;27.620;2022-10-19T04:39:00;101741.41;;;11.46;100.00
36014;BME280;22275;43.208;27.620;2022-10-19T04:41:27;101737.31;;;11.39;100.00
36014;BME280;22275;43.208;27.620;2022-10-19T04:43:57;101729.28;;;11.42;100.00
36014;BME280;22275;43.208;27.620;2022-10-19T04:46:25;101731.56;;;11.31;100.00
36014;BME280;22275;43.208;27.620;2022-10-19T04:48:54;101725.56;;;11.46;100.00
36014;BME280;22275;43.208;27.620;2022-10-19T04:51:22;101720.06;;;11.51;100.00
36014;BME280;22275;43.208;27.620;2022-10-19T04:53:50;101721.63;;;11.55;100.00
36014;BME280;22275;43.208;27.620;2022-10-19T04:56:20;101712.88;;;11.54;100.00
36014;BME280;22275;43.208;27.620;2022-10-19T04:58:47;101721.41;;;11.41;100.00
36014;BME280;22275;43.208;27.620;2022-10-19T05:01:17;101721.00;;;11.13;100.00
36014;BME280;22275;43.208;27.620;2022-10-19T05:03:45;101720.34;;;11.45;100.00
36014;BME280;22275;43.208;27.620;2022-10-19T05:06:15;101718.84;;;11.58;100.00
36014;BME280;22275;43.208;27.620;2022-10-19T05:08:42;101716.59;;;11.69;100.00
36014;BME280;22275;43.208;27.620;2022-10-19T05:11:11;101716.25;;;11.21;100.00
36014;BME280;22275;43.208;27.620;2022-10-19T05:13:39;101722.66;;;11.15;100.00
36014;BME280;22275;43.208;27.620;2022-10-19T05:16:07;101729.25;;;11.05;100.00
36014;BME280;22275;43.208;27.620;2022-10-19T05:18:37;101716.72;;;10.91;100.00
36014;BME280;22275;43.208;27.620;2022-10-19T05:21:06;101726.91;;;11.36;100.00
36014;BME280;22275;43.208;27.620;2022-10-19T05:23:35;101721.28;;;11.25;100.00
36014;BME280;22275;43.208;27.620;2022-10-19T05:26:04;101729.53;;;11.55;100.00
36014;BME280;22275;43.208;27.620;2022-10-19T05:28:32;101728.84;;;11.51;100.00
36014;BME280;22275;43.208;27.620;2022-10-19T05:31:07;101723.41;;;11.36;100.00
36014;BME280;22275;43.208;27.620;2022-10-19T05:33:35;101738.38;;;11.35;100.00
36014;BME280;22275;43.208;27.620;2022-10-19T05:36:15;101736.63;;;11.54;100.00
36014;BME280;22275;43.208;27.620;2022-10-19T05:38:45;101734.31;;;11.47;100.00
36014;BME280;22275;43.208;27.620;2022-10-19T05:41:13;101730.75;;;11.48;100.00
36014;BME280;22275;43.208;27.620;2022-10-19T05:43:41;101736.53;;;11.56;100.00
36014;BME280;22275;43.208;27.620;2022-10-19T05:46:10;101728.91;;;11.50;100.00
36014;BME280;22275;43.208;27.620;2022-10-19T05:48:37;101731.59;;;11.67;100.00
36014;BME280;22275;43.208;27.620;2022-10-19T05:51:06;101743.25;;;11.63;100.00
36014;BME280;22275;43.208;27.620;2022-10-19T05:53:34;101739.59;;;11.84;100.00
36014;BME280;22275;43.208;27.620;2022-10-19T05:56:05;101738.19;;;11.77;100.00
36014;BME280;22275;43.208;27.620;2022-10-19T05:58:33;101728.72;;;11.90;100.00
36014;BME280;22275;43.208;27.620;2022-10-19T06:01:01;101729.19;;;11.81;100.00
36014;BME280;22275;43.208;27.620;2022-10-19T06:03:29;101735.47;;;11.79;100.00
36014;BME280;22275;43.208;27.620;2022-10-19T06:05:57;101730.47;;;11.73;100.00
36014;BME280;22275;43.208;27.620;2022-10-19T06:08:24;101736.97;;;11.66;100.00
36014;BME280;22275;43.208;27.620;2022-10-19T06:10:51;101728.94;;;11.67;100.00
36014;BME280;22275;43.208;27.620;2022-10-19T06:13:20;101734.53;;;11.61;100.00
36014;BME280;22275;43.208;27.620;2022-10-19T06:15:50;101731.44;;;11.72;100.00
36014;BME280;22275;43.208;27.620;2022-10-19T06:18:17;101730.72;;;11.67;100.00
36014;BME280;22275;43.208;27.620;2022-10-19T06:20:51;101733.41;;;12.02;100.00
36014;BME280;22275;43.208;27.620;2022-10-19T06:23:18;101731.88;;;12.33;100.00
36014;BME280;22275;43.208;27.620;2022-10-19T06:25:45;101732.88;;;12.13;100.00
36014;BME280;22275;43.208;27.620;2022-10-19T06:28:12;101723.91;;;11.98;100.00
36014;BME280;22275;43.208;27.620;2022-10-19T06:30:41;101728.06;;;12.38;100.00
36014;BME280;22275;43.208;27.620;2022-10-19T06:33:08;101727.66;;;12.63;100.00
36014;BME280;22275;43.208;27.620;2022-10-19T06:35:35;101727.06;;;12.91;100.00
36014;BME280;22275;43.208;27.620;2022-10-19T06:38:03;101720.81;;;12.59;100.00
36014;BME280;22275;43.208;27.620;2022-10-19T06:40:30;101719.84;;;12.77;100.00
36014;BME280;22275;43.208;27.620;2022-10-19T06:42:57;101718.94;;;12.61;100.00
36014;BME280;22275;43.208;27.620;2022-10-19T06:45:24;101713.63;;;12.78;100.00
36014;BME280;22275;43.208;27.620;2022-10-19T06:47:53;101716.13;;;12.81;100.00
36014;BME280;22275;43.208;27.620;2022-10-19T06:50:21;101712.13;;;12.57;100.00
36014;BME280;22275;43.208;27.620;2022-10-19T06:52:48;101717.06;;;12.63;100.00
36014;BME280;22275;43.208;27.620;2022-10-19T06:55:16;101715.47;;;12.09;100.00
36014;BME280;22275;43.208;27.620;2022-10-19T06:57:43;101718.66;;;11.98;100.00
36014;BME280;22275;43.208;27.620;2022-10-19T07:00:11;101721.59;;;12.61;100.00
36014;BME280;22275;43.208;27.620;2022-10-19T07:02:39;101709.63;;;12.71;100.00
36014;BME280;22275;43.208;27.620;2022-10-19T07:05:08;101709.78;;;12.68;100.00
36014;BME280;22275;43.208;27.620;2022-10-19T07:07:36;101714.84;;;12.55;100.00
36014;BME280;22275;43.208;27.620;2022-10-19T07:10:03;101711.53;;;13.00;100.00
36014;BME280;22275;43.208;27.620;2022-10-19T07:12:31;101704.38;;;13.19;100.00
36014;BME280;22275;43.208;27.620;2022-10-19T07:14:58;101695.66;;;13.00;100.00
36014;BME280;22275;43.208;27.620;2022-10-19T07:17:25;101701.75;;;13.02;100.00
36014;BME280;22275;43.208;27.620;2022-10-19T07:19:52;101697.84;;;13.09;100.00
36014;BME280;22275;43.208;27.620;2022-10-19T07:22:21;101701.56;;;13.38;100.00
36014;BME280;22275;43.208;27.620;2022-10-19T07:24:48;101701.03;;;13.47;100.00
36014;BME280;22275;43.208;27.620;2022-10-19T07:27:16;101694.97;;;13.14;100.00
36014;BME280;22275;43.208;27.620;2022-10-19T07:29:44;101696.22;;;13.07;100.00
36014;BME280;22275;43.208;27.620;2022-10-19T07:32:11;101676.19;;;13.34;100.00
36014;BME280;22275;43.208;27.620;2022-10-19T07:34:38;101685.16;;;13.47;100.00
36014;BME280;22275;43.208;27.620;2022-10-19T07:37:05;101683.00;;;13.54;100.00
36014;BME280;22275;43.208;27.620;2022-10-19T07:39:35;101672.41;;;13.69;100.00
36014;BME280;22275;43.208;27.620;2022-10-19T07:42:02;101671.59;;;13.83;100.00
36014;BME280;22275;43.208;27.620;2022-10-19T07:44:29;101675.50;;;14.07;100.00
36014;BME280;22275;43.208;27.620;2022-10-19T07:46:57;101673.69;;;14.37;100.00
36014;BME280;22275;43.208;27.620;2022-10-19T07:49:24;101671.66;;;14.27;100.00
36014;BME280;22275;43.208;27.620;2022-10-19T07:51:51;101664.63;;;14.26;100.00
36014;BME280;22275;43.208;27.620;2022-10-19T07:54:19;101655.47;;;14.31;100.00
36014;BME280;22275;43.208;27.620;2022-10-19T07:56:50;101658.13;;;14.31;100.00
36014;BME280;22275;43.208;27.620;2022-10-19T07:59:17;101645.56;;;14.35;100.00
36014;BME280;22275;43.208;27.620;2022-10-19T08:01:47;101654.97;;;14.55;100.00
36014;BME280;22275;43.208;27.620;2022-10-19T08:04:15;101657.53;;;14.12;100.00
36014;BME280;22275;43.208;27.620;2022-10-19T08:06:43;101654.22;;;14.23;100.00
36014;BME280;22275;43.208;27.620;2022-10-19T08:09:12;101658.09;;;14.17;100.00
36014;BME280;22275;43.208;27.620;2022-10-19T08:11:39;101645.75;;;14.32;100.00
36014;BME280;22275;43.208;27.620;2022-10-19T08:14:07;101639.31;;;14.36;100.00
36014;BME280;22275;43.208;27.620;2022-10-19T08:16:36;101642.06;;;14.49;100.00
36014;BME280;22275;43.208;27.620;2022-10-19T08:19:06;101650.78;;;14.65;100.00
36014;BME280;22275;43.208;27.620;2022-10-19T08:21:35;101634.69;;;14.68;100.00
36014;BME280;22275;43.208;27.620;2022-10-19T08:24:02;101639.53;;;14.47;100.00
36014;BME280;22275;43.208;27.620;2022-10-19T08:26:31;101624.47;;;14.62;100.00
36014;BME280;22275;43.208;27.620;2022-10-19T08:28:59;101623.59;;;15.04;100.00
36014;BME280;22275;43.208;27.620;2022-10-19T08:31:28;101605.97;;;15.29;100.00
36014;BME280;22275;43.208;27.620;2022-10-19T08:33:56;101607.88;;;15.27;100.00
36014;BME280;22275;43.208;27.620;2022-10-19T08:36:23;101592.16;;;15.78;100.00
36014;BME280;22275;43.208;27.620;2022-10-19T08:38:51;101587.44;;;15.81;100.00
36014;BME280;22275;43.208;27.620;2022-10-19T08:41:22;101584.59;;;15.72;100.00
36014;BME280;22275;43.208;27.620;2022-10-19T08:44:00;101585.13;;;15.89;100.00
36014;BME280;22275;43.208;27.620;2022-10-19T08:46:38;101573.13;;;16.22;100.00
36014;BME280;22275;43.208;27.620;2022-10-19T08:49:13;101575.44;;;16.77;100.00
36014;BME280;22275;43.208;27.620;2022-10-19T08:51:45;101570.28;;;16.99;100.00
36014;BME280;22275;43.208;27.620;2022-10-19T08:54:16;101565.47;;;17.28;100.00
36014;BME280;22275;43.208;27.620;2022-10-19T08:56:47;101561.09;;;17.27;100.00
36014;BME280;22275;43.208;27.620;2022-10-19T08:59:24;101567.59;;;17.46;100.00
36014;BME280;22275;43.208;27.620;2022-10-19T09:01:55;101564.63;;;17.51;100.00
36014;BME280;22275;43.208;27.620;2022-10-19T09:04:26;101561.59;;;17.79;100.00
36014;BME280;22275;43.208;27.620;2022-10-19T09:07:14;101553.50;;;17.57;100.00
36014;BME280;22275;43.208;27.620;2022-10-19T09:09:49;101551.09;;;17.54;100.00
36014;BME280;22275;43.208;27.620;2022-10-19T09:12:28;101553.91;;;17.63;100.00
36014;BME280;22275;43.208;27.620;2022-10-19T09:15:01;101543.31;;;17.97;100.00
36014;BME280;22275;43.208;27.620;2022-10-19T09:17:31;101540.41;;;18.11;100.00
36014;BME280;22275;43.208;27.620;2022-10-19T09:20:12;101531.72;;;18.20;100.00
36014;BME280;22275;43.208;27.620;2022-10-19T09:22:41;101526.41;;;18.53;100.00
36014;BME280;22275;43.208;27.620;2022-10-19T09:25:13;101514.72;;;18.76;100.00
36014;BME280;22275;43.208;27.620;2022-10-19T09:27:46;101511.75;;;18.90;100.00
36014;BME280;22275;43.208;27.620;2022-10-19T09:30:17;101508.66;;;19.17;100.00
36014;BME280;22275;43.208;27.620;2022-10-19T09:32:47;101502.63;;;19.36;100.00
36014;BME280;22275;43.208;27.620;2022-10-19T09:35:25;101494.75;;;19.03;100.00
36014;BME280;22275;43.208;27.620;2022-10-19T09:37:54;101498.88;;;19.27;100.00
36014;BME280;22275;43.208;27.620;2022-10-19T09:40:25;101487.84;;;19.52;100.00
36014;BME280;22275;43.208;27.620;2022-10-19T09:42:53;101489.50;;;19.33;100.00
36014;BME280;22275;43.208;27.620;2022-10-19T09:45:31;101476.91;;;19.56;100.00
36014;BME280;22275;43.208;27.620;2022-10-19T09:48:01;101475.34;;;19.74;100.00
36014;BME280;22275;43.208;27.620;2022-10-19T09:50:30;101467.59;;;19.50;100.00
36014;BME280;22275;43.208;27.620;2022-10-19T09:52:58;101460.06;;;19.55;100.00
36014;BME280;22275;43.208;27.620;2022-10-19T09:55:28;101448.25;;;19.88;100.00
36014;BME280;22275;43.208;27.620;2022-10-19T09:58:02;101455.56;;;20.16;100.00
36014;BME280;22275;43.208;27.620;2022-10-19T10:00:56;101450.31;;;20.05;100.00
36014;BME280;22275;43.208;27.620;2022-10-19T10:03:30;101439.03;;;20.01;100.00
36014;BME280;22275;43.208;27.620;2022-10-19T10:06:00;101433.31;;;20.16;96.44
36014;BME280;22275;43.208;27.620;2022-10-19T10:08:30;101433.22;;;20.27;92.31
36014;BME280;22275;43.208;27.620;2022-10-19T10:11:06;101424.00;;;20.50;90.66
36014;BME280;22275;43.208;27.620;2022-10-19T10:13:36;101417.41;;;20.54;88.03
36014;BME280;22275;43.208;27.620;2022-10-19T10:16:05;101409.09;;;20.57;79.78
36014;BME280;22275;43.208;27.620;2022-10-19T10:18:37;101417.84;;;20.88;95.78
36014;BME280;22275;43.208;27.620;2022-10-19T10:21:13;101413.50;;;20.77;100.00
36014;BME280;22275;43.208;27.620;2022-10-19T10:23:41;101396.00;;;20.73;100.00
36014;BME280;22275;43.208;27.620;2022-10-19T10:26:17;101401.06;;;20.95;100.00
36014;BME280;22275;43.208;27.620;2022-10-19T10:28:49;101396.13;;;21.00;100.00
36014;BME280;22275;43.208;27.620;2022-10-19T10:31:21;101382.75;;;21.19;100.00
36014;BME280;22275;43.208;27.620;2022-10-19T10:33:56;101385.00;;;21.14;100.00
36014;BME280;22275;43.208;27.620;2022-10-19T10:36:27;101381.31;;;21.06;100.00
36014;BME280;22275;43.208;27.620;2022-10-19T10:39:00;101370.22;;;21.10;100.00
36014;BME280;22275;43.208;27.620;2022-10-19T10:41:30;101372.28;;;21.26;100.00
36014;BME280;22275;43.208;27.620;2022-10-19T10:44:07;101371.44;;;21.06;100.00
36014;BME280;22275;43.208;27.620;2022-10-19T10:46:51;101366.81;;;21.18;100.00
36014;BME280;22275;43.208;27.620;2022-10-19T10:49:23;101362.00;;;21.22;100.00
36014;BME280;22275;43.208;27.620;2022-10-19T10:51:54;101351.75;;;21.17;100.00
36014;BME280;22275;43.208;27.620;2022-10-19T10:54:24;101343.28;;;21.02;100.00
36014;BME280;22275;43.208;27.620;2022-10-19T10:57:19;101333.97;;;21.26;100.00
36014;BME280;22275;43.208;27.620;2022-10-19T10:59:53;101328.72;;;21.61;96.78
36014;BME280;22275;43.208;27.620;2022-10-19T11:02:31;101314.22;;;21.91;94.33
36014;BME280;22275;43.208;27.620;2022-10-19T11:05:07;101316.47;;;21.95;88.62
36014;BME280;22275;43.208;27.620;2022-10-19T11:07:40;101296.41;;;21.99;87.16
36014;BME280;22275;43.208;27.620;2022-10-19T11:10:17;101298.63;;;22.04;85.22
36014;BME280;22275;43.208;27.620;2022-10-19T11:12:50;101294.84;;;22.14;80.12
36014;BME280;22275;43.208;27.620;2022-10-19T11:15:23;101292.88;;;22.16;76.81
36014;BME280;22275;43.208;27.620;2022-10-19T11:17:56;101288.41;;;22.43;74.59
36014;BME280;22275;43.208;27.620;2022-10-19T11:20:29;101278.00;;;22.40;74.35
36014;BME280;22275;43.208;27.620;2022-10-19T11:23:06;101283.84;;;22.53;74.26
36014;BME280;22275;43.208;27.620;2022-10-19T11:25:45;101273.59;;;22.56;72.37
36014;BME280;22275;43.208;27.620;2022-10-19T11:28:29;101279.00;;;22.21;69.84
36014;BME280;22275;43.208;27.620;2022-10-19T11:31:05;101276.53;;;22.10;68.44
36014;BME280;22275;43.208;27.620;2022-10-19T11:33:46;101273.47;;;22.40;67.80
36014;BME280;22275;43.208;27.620;2022-10-19T11:36:28;101270.63;;;22.77;64.40
36014;BME280;22275;43.208;27.620;2022-10-19T11:39:09;101270.66;;;22.42;63.14
36014;BME280;22275;43.208;27.620;2022-10-19T11:41:46;101270.28;;;22.62;62.07
36014;BME280;22275;43.208;27.620;2022-10-19T11:44:27;101259.06;;;22.59;61.55
36014;BME280;22275;43.208;27.620;2022-10-19T11:47:14;101257.03;;;22.61;61.61
36014;BME280;22275;43.208;27.620;2022-10-19T11:49:54;101262.88;;;22.74;60.89
36014;BME280;22275;43.208;27.620;2022-10-19T11:52:33;101255.19;;;23.05;60.17
36014;BME280;22275;43.208;27.620;2022-10-19T11:55:15;101250.81;;;23.04;57.75
36014;BME280;22275;43.208;27.620;2022-10-19T11:57:50;101250.59;;;23.23;56.70
36014;BME280;22275;43.208;27.620;2022-10-19T12:00:21;101254.66;;;23.61;54.75
36014;BME280;22275;43.208;27.620;2022-10-19T12:03:15;101248.66;;;23.67;51.87
36014;BME280;22275;43.208;27.620;2022-10-19T12:06:03;101240.19;;;23.62;49.96
36014;BME280;22275;43.208;27.620;2022-10-19T12:08:58;101250.94;;;23.54;49.50
36014;BME280;22275;43.208;27.620;2022-10-19T12:11:38;101233.13;;;23.53;48.32
36014;BME280;22275;43.208;27.620;2022-10-19T12:14:12;101233.81;;;23.63;45.46
36014;BME280;22275;43.208;27.620;2022-10-19T12:16:44;101227.44;;;23.64;44.78
36014;BME280;22275;43.208;27.620;2022-10-19T12:19:18;101238.03;;;23.65;45.00
36014;BME280;22275;43.208;27.620;2022-10-19T12:21:47;101230.16;;;23.72;44.68
36014;BME280;22275;43.208;27.620;2022-10-19T12:24:19;101224.56;;;23.65;44.36
36014;BME280;22275;43.208;27.620;2022-10-19T12:26:49;101224.25;;;23.68;43.63
36014;BME280;22275;43.208;27.620;2022-10-19T12:29:22;101209.97;;;23.76;43.23
36014;BME280;22275;43.208;27.620;2022-10-19T12:31:50;101215.03;;;23.79;43.82
36014;BME280;22275;43.208;27.620;2022-10-19T12:34:26;101215.06;;;23.95;43.90
36014;BME280;22275;43.208;27.620;2022-10-19T12:37:01;101200.59;;;24.04;44.43
36014;BME280;22275;43.208;27.620;2022-10-19T12:39:38;101203.81;;;24.08;44.14
36014;BME280;22275;43.208;27.620;2022-10-19T12:42:15;101206.94;;;23.71;45.17
36014;BME280;22275;43.208;27.620;2022-10-19T12:45:11;101201.09;;;23.99;45.37
36014;BME280;22275;43.208;27.620;2022-10-19T12:48:19;101190.91;;;24.11;45.49
36014;BME280;22275;43.208;27.620;2022-10-19T12:51:02;101199.53;;;23.65;46.37
36014;BME280;22275;43.208;27.620;2022-10-19T12:53:32;101199.50;;;23.57;46.61